Time;durP1;ratioP1;P1;durP2;ratioP2;P2;SDS_P1;SDS_P2;PMS_P1;PMS_P2;Temp;Humidity;BMP_temperature;BMP_pressure;BME280_temperature;BME280_humidity;BME280_pressure;Samples;Min_cycle;Max_cycle;Signal;HPM_P1;HPM_P2
2022/12/16 00:00:19;;;;;;;31.27;15.02;;;-5.10;99.90;;;;;;5048194;28;20032;-41
2022/12/16 00:02:45;;;;;;;29.33;14.68;;;-5.10;99.90;;;;;;5046878;28;20432;-42
2022/12/16 00:05:10;;;;;;;33.47;14.30;;;-5.20;99.90;;;;;;5048417;28;20029;-41
2022/12/16 00:07:36;;;;;;;32.03;15.75;;;-5.20;99.90;;;;;;5048544;28;20055;-41
2022/12/16 00:10:02;;;;;;;36.20;15.57;;;-5.20;99.90;;;;;;5047980;28;20454;-41
2022/12/16 00:12:27;;;;;;;28.30;14.45;;;-5.20;99.90;;;;;;5048293;28;20116;-41
2022/12/16 00:14:54;;;;;;;27.10;14.75;;;-5.30;99.90;;;;;;5048302;28;20167;-41
2022/12/16 00:17:19;;;;;;;36.58;14.95;;;-5.20;99.90;;;;;;5048376;28;20024;-41
2022/12/16 00:19:45;;;;;;;33.15;15.98;;;-5.30;99.90;;;;;;5049767;28;20429;-42
2022/12/16 00:22:10;;;;;;;28.38;13.68;;;-5.30;99.90;;;;;;5055806;28;20028;-41
2022/12/16 00:24:36;;;;;;;32.38;15.82;;;-5.30;99.90;;;;;;5048214;28;20382;-42
2022/12/16 00:27:01;;;;;;;31.42;15.05;;;-5.30;99.90;;;;;;5048028;28;20025;-42
2022/12/16 00:29:27;;;;;;;31.30;14.68;;;-5.30;99.90;;;;;;5047622;28;20025;-41
2022/12/16 00:31:52;;;;;;;31.85;15.57;;;-5.30;99.90;;;;;;5047916;28;20521;-41
2022/12/16 00:34:18;;;;;;;27.48;13.68;;;-5.40;99.90;;;;;;5048056;28;20032;-43
2022/12/16 00:36:43;;;;;;;33.70;13.85;;;-5.40;99.90;;;;;;5048281;28;20186;-41
2022/12/16 00:39:09;;;;;;;27.55;13.98;;;-5.40;99.90;;;;;;5047709;28;20406;-41
2022/12/16 00:41:35;;;;;;;26.00;13.27;;;-5.40;99.90;;;;;;5048786;28;20386;-41
2022/12/16 00:44:01;;;;;;;30.55;12.90;;;-5.40;99.90;;;;;;5051557;28;20017;-42
2022/12/16 00:46:27;;;;;;;26.98;13.80;;;-5.40;99.90;;;;;;5052023;28;20025;-41
2022/12/16 00:48:53;;;;;;;28.10;14.65;;;-5.50;99.90;;;;;;5051646;28;20474;-41
2022/12/16 00:51:18;;;;;;;27.83;13.32;;;-5.50;99.90;;;;;;5051215;28;20481;-41
2022/12/16 00:53:44;;;;;;;27.23;14.23;;;-5.60;99.90;;;;;;5051597;28;20057;-40
2022/12/16 00:56:13;;;;;;;31.55;15.80;;;-5.60;99.90;;;;;;5051398;28;20048;-41
2022/12/16 00:58:39;;;;;;;24.15;12.68;;;-5.60;99.90;;;;;;5051607;28;20029;-40
2022/12/16 01:01:07;;;;;;;26.95;13.60;;;-5.70;99.90;;;;;;5050840;28;20017;-41
2022/12/16 01:03:33;;;;;;;36.72;15.68;;;-5.70;99.90;;;;;;5051480;28;20029;-42
2022/12/16 01:05:59;;;;;;;31.08;14.05;;;-5.60;99.90;;;;;;5050254;28;20034;-42
2022/12/16 01:08:25;;;;;;;29.17;13.82;;;-5.70;99.90;;;;;;5051389;28;20025;-42
2022/12/16 01:10:52;;;;;;;32.88;15.02;;;-5.70;99.90;;;;;;5050425;28;20033;-42
2022/12/16 01:13:17;;;;;;;32.92;16.73;;;-5.70;99.90;;;;;;5051001;28;20025;-42
2022/12/16 01:15:43;;;;;;;32.33;15.73;;;-5.70;99.90;;;;;;5051051;28;20021;-42
2022/12/16 01:18:09;;;;;;;29.85;14.18;;;-5.70;99.90;;;;;;5050963;28;20154;-41
2022/12/16 01:20:35;;;;;;;26.73;14.00;;;-5.70;99.90;;;;;;5050626;28;20063;-41
2022/12/16 01:23:01;;;;;;;27.58;13.90;;;-5.80;99.90;;;;;;5050978;28;20156;-47
2022/12/16 01:25:26;;;;;;;32.30;15.43;;;-5.80;99.90;;;;;;5050954;28;20067;-41
2022/12/16 01:27:51;;;;;;;30.45;14.07;;;-5.80;99.90;;;;;;5051456;28;20032;-41
2022/12/16 01:30:17;;;;;;;28.42;14.07;;;-5.80;99.90;;;;;;5050591;28;20029;-41
2022/12/16 01:32:43;;;;;;;37.35;14.88;;;-5.80;99.90;;;;;;5051032;28;20116;-41
2022/12/16 01:35:09;;;;;;;36.08;14.93;;;-5.80;99.90;;;;;;5051083;28;20404;-41
2022/12/16 01:37:35;;;;;;;31.23;15.85;;;-5.80;99.90;;;;;;5051128;28;20104;-41
2022/12/16 01:40:01;;;;;;;35.78;16.25;;;-5.80;99.90;;;;;;5050263;28;20028;-41
2022/12/16 01:42:31;;;;;;;32.33;14.35;;;-5.90;99.90;;;;;;5050683;28;20021;-41
2022/12/16 01:45:29;;;;;;;33.40;14.18;;;-6.00;99.90;;;;;;5050633;28;20029;-41
2022/12/16 01:47:57;;;;;;;35.92;15.60;;;-5.90;99.90;;;;;;5049484;28;20363;-42
2022/12/16 01:50:24;;;;;;;35.00;14.63;;;-5.90;99.90;;;;;;5050129;28;20029;-42
2022/12/16 01:52:54;;;;;;;32.33;15.52;;;-5.90;99.90;;;;;;5049867;28;20025;-41
2022/12/16 01:55:34;;;;;;;40.63;15.38;;;-5.90;99.90;;;;;;5049963;28;20029;-41
2022/12/16 01:58:08;;;;;;;35.83;14.88;;;-5.90;99.90;;;;;;5050770;28;20099;-42
2022/12/16 02:00:35;;;;;;;33.85;15.00;;;-5.90;99.90;;;;;;5049828;28;20025;-41
2022/12/16 02:03:01;;;;;;;28.88;13.88;;;-6.00;99.90;;;;;;5050039;28;20394;-41
2022/12/16 02:05:28;;;;;;;28.90;15.52;;;-6.10;99.90;;;;;;5050070;28;20028;-41
2022/12/16 02:08:06;;;;;;;33.10;15.00;;;-6.10;99.90;;;;;;5050095;28;20024;-41
2022/12/16 02:10:43;;;;;;;34.70;14.52;;;-6.10;99.90;;;;;;5049602;28;20021;-41
2022/12/16 02:13:37;;;;;;;36.35;15.85;;;-6.10;99.90;;;;;;5050145;28;20455;-41
2022/12/16 02:16:23;;;;;;;36.15;14.93;;;-6.10;99.90;;;;;;5050259;28;20029;-41
2022/12/16 02:19:09;;;;;;;32.85;15.30;;;-6.10;99.90;;;;;;5050565;28;20483;-41
2022/12/16 02:22:16;;;;;;;29.98;14.82;;;-6.20;99.90;;;;;;5050725;28;20029;-41
2022/12/16 02:24:51;;;;;;;28.92;15.38;;;-6.20;99.90;;;;;;5027148;28;20376;-41
2022/12/16 02:27:41;;;;;;;35.08;15.38;;;-6.10;99.90;;;;;;5043884;28;20056;-41
2022/12/16 02:30:40;;;;;;;36.90;16.33;;;-6.10;99.90;;;;;;5047936;28;20025;-41
2022/12/16 02:33:25;;;;;;;35.28;15.13;;;-6.10;99.90;;;;;;5049530;28;20032;-41
2022/12/16 02:35:55;;;;;;;32.40;15.40;;;-6.10;99.90;;;;;;5049437;28;20047;-41
2022/12/16 02:38:31;;;;;;;33.53;15.40;;;-6.20;99.90;;;;;;5049684;28;20029;-41
2022/12/16 02:41:04;;;;;;;36.10;15.27;;;-6.10;99.90;;;;;;5048974;28;20028;-41
2022/12/16 02:43:47;;;;;;;34.38;16.23;;;-6.20;99.90;;;;;;5049576;28;20021;-41
2022/12/16 02:46:13;;;;;;;34.20;15.30;;;-6.20;99.90;;;;;;5049274;28;20028;-41
2022/12/16 02:48:39;;;;;;;34.53;15.10;;;-6.20;99.90;;;;;;5049507;28;20013;-41
2022/12/16 02:51:05;;;;;;;29.75;14.40;;;-6.20;99.90;;;;;;5048799;28;20037;-41
2022/12/16 02:53:33;;;;;;;32.72;14.30;;;-6.20;99.90;;;;;;5049358;28;20072;-41
2022/12/16 02:56:09;;;;;;;40.70;15.02;;;-6.10;99.90;;;;;;5048934;28;20735;-41
2022/12/16 02:59:06;;;;;;;36.50;16.40;;;-6.20;99.90;;;;;;5049130;28;20474;-41
2022/12/16 03:01:51;;;;;;;29.98;15.52;;;-6.20;99.90;;;;;;5043917;28;20044;-41
2022/12/16 03:04:44;;;;;;;34.00;15.65;;;-6.10;99.90;;;;;;5049908;28;20248;-44
2022/12/16 03:07:13;;;;;;;30.65;15.88;;;-6.10;99.90;;;;;;5049318;28;20037;-41
2022/12/16 03:09:41;;;;;;;30.35;15.00;;;-6.20;99.90;;;;;;5048622;28;20386;-41
2022/12/16 03:12:13;;;;;;;29.63;14.38;;;-6.20;99.90;;;;;;5048754;28;20048;-41
2022/12/16 03:14:42;;;;;;;38.00;15.45;;;-6.30;99.90;;;;;;5046049;28;20029;-41
2022/12/16 03:17:09;;;;;;;37.70;15.43;;;-6.40;99.90;;;;;;5049690;28;20029;-41
2022/12/16 03:19:39;;;;;;;37.53;15.98;;;-6.40;99.90;;;;;;5048970;28;20104;-41
2022/12/16 03:22:11;;;;;;;39.47;17.70;;;-6.30;99.90;;;;;;5049122;28;20024;-41
2022/12/16 03:24:38;;;;;;;38.03;17.40;;;-6.30;99.90;;;;;;5048930;28;20607;-41
2022/12/16 03:27:17;;;;;;;45.22;19.15;;;-6.30;99.90;;;;;;5049153;28;20052;-41
2022/12/16 03:30:05;;;;;;;42.53;18.90;;;-6.30;99.90;;;;;;5048905;28;20043;-41
2022/12/16 03:32:35;;;;;;;42.53;20.35;;;-6.30;99.90;;;;;;5048770;28;20056;-41
2022/12/16 03:35:12;;;;;;;38.53;18.92;;;-6.30;99.90;;;;;;5048695;28;20071;-41
2022/12/16 03:37:40;;;;;;;39.67;18.27;;;-6.30;99.90;;;;;;5048746;28;20475;-41
2022/12/16 03:40:07;;;;;;;39.55;17.35;;;-6.40;99.90;;;;;;5048169;28;20083;-41
2022/12/16 03:42:35;;;;;;;39.95;17.92;;;-6.40;99.90;;;;;;5047330;28;20107;-41
2022/12/16 03:45:01;;;;;;;35.83;18.58;;;-6.40;99.90;;;;;;5048852;28;20025;-41
2022/12/16 03:47:28;;;;;;;41.67;19.42;;;-6.50;99.90;;;;;;5048929;28;20028;-41
2022/12/16 03:49:53;;;;;;;39.35;18.58;;;-6.50;99.90;;;;;;5048246;28;20029;-41
2022/12/16 03:52:19;;;;;;;35.55;18.83;;;-6.40;99.90;;;;;;5048629;28;20501;-41
2022/12/16 03:54:44;;;;;;;36.10;16.90;;;-6.50;99.90;;;;;;5048620;28;20037;-41
2022/12/16 03:57:10;;;;;;;30.15;16.52;;;-6.50;99.90;;;;;;5048280;28;20120;-41
2022/12/16 03:59:35;;;;;;;37.42;18.83;;;-6.40;99.90;;;;;;5048161;28;20033;-41
2022/12/16 04:02:01;;;;;;;39.65;19.35;;;-6.40;99.90;;;;;;5047980;28;20111;-41
2022/12/16 04:04:26;;;;;;;42.72;19.48;;;-6.40;99.90;;;;;;5047724;28;20029;-41
2022/12/16 04:07:19;;;;;;;40.38;18.27;;;-6.40;99.90;;;;;;5036549;28;20071;-42
2022/12/16 04:09:37;;;;;;;43.28;19.05;;;-6.40;99.90;;;;;;5037528;28;20131;-41
2022/12/16 04:25:45;;;;;;;42.30;19.98;;;-6.40;99.90;;;;;;5041069;28;20103;-46
2022/12/16 04:28:11;;;;;;;40.75;18.33;;;-6.40;99.90;;;;;;5042055;28;20309;-43
2022/12/16 04:30:36;;;;;;;35.65;19.17;;;-6.40;99.90;;;;;;5038273;28;20020;-41
